sensor_id;sensor_type;location;lat;lon;timestamp;temperature;humidity
44731;DHT22;30458;47.448;19.032;2023-03-29T00:00:27;5.00;73.60
44731;DHT22;30458;47.448;19.032;2023-03-29T00:10:32;5.20;73.30
44731;DHT22;30458;47.448;19.032;2023-03-29T00:20:33;4.70;73.50
44731;DHT22;30458;47.448;19.032;2023-03-29T00:30:36;4.40;77.00
44731;DHT22;30458;47.448;19.032;2023-03-29T00:40:47;4.00;79.90
44731;DHT22;30458;47.448;19.032;2023-03-29T00:51:02;4.00;81.00
44731;DHT22;30458;47.448;19.032;2023-03-29T01:01:12;3.80;81.30
44731;DHT22;30458;47.448;19.032;2023-03-29T01:11:24;3.80;81.80
44731;DHT22;30458;47.448;19.032;2023-03-29T01:21:50;3.60;82.20
44731;DHT22;30458;47.448;19.032;2023-03-29T02:02:53;3.40;84.20
44731;DHT22;30458;47.448;19.032;2023-03-29T02:12:55;3.90;83.30
44731;DHT22;30458;47.448;19.032;2023-03-29T02:33:08;4.20;82.20
44731;DHT22;30458;47.448;19.032;2023-03-29T02:43:12;4.00;81.70
44731;DHT22;30458;47.448;19.032;2023-03-29T02:53:16;4.10;82.80
44731;DHT22;30458;47.448;19.032;2023-03-29T03:03:22;4.00;83.30
44731;DHT22;30458;47.448;19.032;2023-03-29T03:13:24;3.90;83.70
44731;DHT22;30458;47.448;19.032;2023-03-29T03:23:32;3.90;83.30
44731;DHT22;30458;47.448;19.032;2023-03-29T03:33:34;3.80;83.80
44731;DHT22;30458;47.448;19.032;2023-03-29T03:44:07;3.80;83.40
44731;DHT22;30458;47.448;19.032;2023-03-29T03:54:08;3.60;84.00
44731;DHT22;30458;47.448;19.032;2023-03-29T04:04:10;3.50;84.50
44731;DHT22;30458;47.448;19.032;2023-03-29T04:14:12;3.40;84.80
44731;DHT22;30458;47.448;19.032;2023-03-29T04:24:36;3.40;84.90
44731;DHT22;30458;47.448;19.032;2023-03-29T04:35:14;3.10;85.90
44731;DHT22;30458;47.448;19.032;2023-03-29T04:45:15;3.00;86.70
44731;DHT22;30458;47.448;19.032;2023-03-29T04:55:36;3.10;86.50
44731;DHT22;30458;47.448;19.032;2023-03-29T05:05:38;3.80;85.90
44731;DHT22;30458;47.448;19.032;2023-03-29T05:15:40;5.10;81.80
44731;DHT22;30458;47.448;19.032;2023-03-29T05:25:43;4.80;82.10
44731;DHT22;30458;47.448;19.032;2023-03-29T05:35:44;4.80;83.50
44731;DHT22;30458;47.448;19.032;2023-03-29T05:45:45;4.60;83.70
44731;DHT22;30458;47.448;19.032;2023-03-29T05:55:47;4.30;84.00
44731;DHT22;30458;47.448;19.032;2023-03-29T06:05:57;4.50;83.90
44731;DHT22;30458;47.448;19.032;2023-03-29T06:16:01;4.50;83.60
44731;DHT22;30458;47.448;19.032;2023-03-29T06:26:04;4.40;84.10
44731;DHT22;30458;47.448;19.032;2023-03-29T06:36:06;4.70;83.70
44731;DHT22;30458;47.448;19.032;2023-03-29T06:46:07;4.70;84.40
44731;DHT22;30458;47.448;19.032;2023-03-29T06:56:24;4.90;84.50
44731;DHT22;30458;47.448;19.032;2023-03-29T07:06:37;5.70;82.60
44731;DHT22;30458;47.448;19.032;2023-03-29T07:16:48;6.10;81.10
44731;DHT22;30458;47.448;19.032;2023-03-29T07:27:07;6.50;80.40
44731;DHT22;30458;47.448;19.032;2023-03-29T07:37:08;6.60;78.80
44731;DHT22;30458;47.448;19.032;2023-03-29T07:47:14;7.60;75.00
44731;DHT22;30458;47.448;19.032;2023-03-29T07:57:16;8.30;75.00
44731;DHT22;30458;47.448;19.032;2023-03-29T08:07:24;8.30;73.30
44731;DHT22;30458;47.448;19.032;2023-03-29T08:17:27;7.70;72.40
44731;DHT22;30458;47.448;19.032;2023-03-29T08:27:29;7.50;72.70
44731;DHT22;30458;47.448;19.032;2023-03-29T08:37:34;7.60;70.70
44731;DHT22;30458;47.448;19.032;2023-03-29T08:58:15;8.70;68.10
44731;DHT22;30458;47.448;19.032;2023-03-29T09:08:22;9.20;67.20
44731;DHT22;30458;47.448;19.032;2023-03-29T09:39:14;10.10;65.20
44731;DHT22;30458;47.448;19.032;2023-03-29T09:49:33;10.70;64.00
44731;DHT22;30458;47.448;19.032;2023-03-29T09:59:35;10.60;65.40
44731;DHT22;30458;47.448;19.032;2023-03-29T10:09:39;10.40;65.40
44731;DHT22;30458;47.448;19.032;2023-03-29T10:19:57;10.00;65.10
44731;DHT22;30458;47.448;19.032;2023-03-29T10:29:59;10.10;65.20
44731;DHT22;30458;47.448;19.032;2023-03-29T10:40:02;10.10;66.80
44731;DHT22;30458;47.448;19.032;2023-03-29T10:50:05;10.00;67.70
44731;DHT22;30458;47.448;19.032;2023-03-29T11:00:22;9.90;68.50
44731;DHT22;30458;47.448;19.032;2023-03-29T11:41:23;10.10;69.50
44731;DHT22;30458;47.448;19.032;2023-03-29T11:51:51;10.30;69.40
44731;DHT22;30458;47.448;19.032;2023-03-29T12:22:48;10.40;68.60
44731;DHT22;30458;47.448;19.032;2023-03-29T12:43:32;10.80;69.50
44731;DHT22;30458;47.448;19.032;2023-03-29T12:53:53;10.90;69.60
44731;DHT22;30458;47.448;19.032;2023-03-29T13:14:01;10.70;71.60
44731;DHT22;30458;47.448;19.032;2023-03-29T13:44:43;11.20;70.40
44731;DHT22;30458;47.448;19.032;2023-03-29T14:04:52;11.40;72.40
44731;DHT22;30458;47.448;19.032;2023-03-29T14:14:59;10.90;72.10
44731;DHT22;30458;47.448;19.032;2023-03-29T14:25:06;10.90;73.20
44731;DHT22;30458;47.448;19.032;2023-03-29T14:35:11;11.10;73.10
44731;DHT22;30458;47.448;19.032;2023-03-29T14:45:16;11.20;72.50
44731;DHT22;30458;47.448;19.032;2023-03-29T14:55:18;11.20;72.70
44731;DHT22;30458;47.448;19.032;2023-03-29T15:05:31;11.30;72.90
44731;DHT22;30458;47.448;19.032;2023-03-29T15:15:35;11.40;73.00
44731;DHT22;30458;47.448;19.032;2023-03-29T15:25:57;11.00;72.30
44731;DHT22;30458;47.448;19.032;2023-03-29T15:36:02;10.80;74.00
44731;DHT22;30458;47.448;19.032;2023-03-29T15:46:04;11.00;74.00
44731;DHT22;30458;47.448;19.032;2023-03-29T15:56:06;11.20;72.70
44731;DHT22;30458;47.448;19.032;2023-03-29T16:06:12;11.10;73.00
44731;DHT22;30458;47.448;19.032;2023-03-29T16:16:13;10.80;72.90
44731;DHT22;30458;47.448;19.032;2023-03-29T16:26:17;10.70;74.30
44731;DHT22;30458;47.448;19.032;2023-03-29T16:36:20;10.60;74.50
44731;DHT22;30458;47.448;19.032;2023-03-29T16:46:24;10.50;75.50
44731;DHT22;30458;47.448;19.032;2023-03-29T16:56:25;10.60;74.60
44731;DHT22;30458;47.448;19.032;2023-03-29T17:06:27;10.70;75.10
44731;DHT22;30458;47.448;19.032;2023-03-29T17:16:30;10.70;77.20
44731;DHT22;30458;47.448;19.032;2023-03-29T17:26:31;10.70;79.70
44731;DHT22;30458;47.448;19.032;2023-03-29T17:36:32;10.70;81.60
44731;DHT22;30458;47.448;19.032;2023-03-29T17:46:33;10.60;82.40
44731;DHT22;30458;47.448;19.032;2023-03-29T17:56:34;10.60;83.20
44731;DHT22;30458;47.448;19.032;2023-03-29T18:06:35;10.50;83.90
44731;DHT22;30458;47.448;19.032;2023-03-29T18:16:35;10.40;84.70
44731;DHT22;30458;47.448;19.032;2023-03-29T18:26:42;10.40;85.20
44731;DHT22;30458;47.448;19.032;2023-03-29T18:36:43;10.40;85.60
44731;DHT22;30458;47.448;19.032;2023-03-29T18:46:44;10.30;86.60
44731;DHT22;30458;47.448;19.032;2023-03-29T18:56:47;10.30;87.40
44731;DHT22;30458;47.448;19.032;2023-03-29T19:06:50;10.30;87.70
44731;DHT22;30458;47.448;19.032;2023-03-29T19:16:51;10.40;87.50
44731;DHT22;30458;47.448;19.032;2023-03-29T19:26:55;10.40;88.10
44731;DHT22;30458;47.448;19.032;2023-03-29T19:37:00;10.40;88.50
44731;DHT22;30458;47.448;19.032;2023-03-29T19:47:01;10.40;88.40
44731;DHT22;30458;47.448;19.032;2023-03-29T19:57:02;10.50;88.80
44731;DHT22;30458;47.448;19.032;2023-03-29T20:07:06;10.40;89.10
44731;DHT22;30458;47.448;19.032;2023-03-29T20:17:10;10.40;90.00
44731;DHT22;30458;47.448;19.032;2023-03-29T20:27:13;10.30;90.00
44731;DHT22;30458;47.448;19.032;2023-03-29T20:37:15;10.00;90.50
44731;DHT22;30458;47.448;19.032;2023-03-29T20:47:16;9.60;91.50
44731;DHT22;30458;47.448;19.032;2023-03-29T20:57:19;9.50;92.00
44731;DHT22;30458;47.448;19.032;2023-03-29T21:07:22;9.40;92.50
44731;DHT22;30458;47.448;19.032;2023-03-29T21:17:23;9.50;92.60
44731;DHT22;30458;47.448;19.032;2023-03-29T21:27:24;9.30;92.80
44731;DHT22;30458;47.448;19.032;2023-03-29T21:37:27;9.50;92.40
44731;DHT22;30458;47.448;19.032;2023-03-29T21:47:32;9.30;92.60
44731;DHT22;30458;47.448;19.032;2023-03-29T21:57:35;9.00;92.90
44731;DHT22;30458;47.448;19.032;2023-03-29T22:07:36;9.30;92.70
44731;DHT22;30458;47.448;19.032;2023-03-29T22:17:40;9.50;92.40
44731;DHT22;30458;47.448;19.032;2023-03-29T22:27:46;9.80;92.70
44731;DHT22;30458;47.448;19.032;2023-03-29T22:37:49;9.90;92.80
44731;DHT22;30458;47.448;19.032;2023-03-29T22:47:52;9.90;93.00
44731;DHT22;30458;47.448;19.032;2023-03-29T22:57:58;9.80;93.30
44731;DHT22;30458;47.448;19.032;2023-03-29T23:07:59;9.70;93.30
44731;DHT22;30458;47.448;19.032;2023-03-29T23:18:03;9.50;93.70
44731;DHT22;30458;47.448;19.032;2023-03-29T23:28:04;9.50;94.00
44731;DHT22;30458;47.448;19.032;2023-03-29T23:38:08;9.40;94.60
44731;DHT22;30458;47.448;19.032;2023-03-29T23:48:14;9.20;95.00
44731;DHT22;30458;47.448;19.032;2023-03-29T23:58:15;9.30;95.20
